sensor_id;sensor_type;location;lat;lon;timestamp;P1;durP1;ratioP1;P2;durP2;ratioP2
22176;SDS011;11254;50.098;8.726;2022-10-16T00:00:58;5.78;;;3.35;;
22176;SDS011;11254;50.098;8.726;2022-10-16T00:03:32;7.60;;;3.60;;
22176;SDS011;11254;50.098;8.726;2022-10-16T00:06:00;8.45;;;3.90;;
22176;SDS011;11254;50.098;8.726;2022-10-16T00:08:30;7.60;;;3.63;;
22176;SDS011;11254;50.098;8.726;2022-10-16T00:10:59;6.32;;;3.42;;
22176;SDS011;11254;50.098;8.726;2022-10-16T00:13:28;8.20;;;3.30;;
22176;SDS011;11254;50.098;8.726;2022-10-16T00:15:56;6.63;;;3.42;;
22176;SDS011;11254;50.098;8.726;2022-10-16T00:18:25;8.60;;;3.42;;
22176;SDS011;11254;50.098;8.726;2022-10-16T00:20:54;8.70;;;3.40;;
22176;SDS011;11254;50.098;8.726;2022-10-16T00:23:43;5.07;;;3.20;;
22176;SDS011;11254;50.098;8.726;2022-10-16T00:26:16;6.28;;;3.15;;
22176;SDS011;11254;50.098;8.726;2022-10-16T00:28:45;8.07;;;3.85;;
22176;SDS011;11254;50.098;8.726;2022-10-16T00:31:14;5.85;;;3.30;;
22176;SDS011;11254;50.098;8.726;2022-10-16T00:33:43;7.28;;;2.95;;
22176;SDS011;11254;50.098;8.726;2022-10-16T00:36:12;7.10;;;3.10;;
22176;SDS011;11254;50.098;8.726;2022-10-16T00:38:42;6.10;;;3.22;;
22176;SDS011;11254;50.098;8.726;2022-10-16T00:41:12;5.63;;;2.88;;
22176;SDS011;11254;50.098;8.726;2022-10-16T00:43:41;4.43;;;2.67;;
22176;SDS011;11254;50.098;8.726;2022-10-16T00:46:12;4.93;;;2.90;;
22176;SDS011;11254;50.098;8.726;2022-10-16T00:48:42;6.38;;;2.70;;
22176;SDS011;11254;50.098;8.726;2022-10-16T00:51:12;6.90;;;2.53;;
22176;SDS011;11254;50.098;8.726;2022-10-16T00:53:40;4.65;;;2.50;;
22176;SDS011;11254;50.098;8.726;2022-10-16T00:56:10;4.50;;;2.70;;
22176;SDS011;11254;50.098;8.726;2022-10-16T00:58:39;7.35;;;2.58;;
22176;SDS011;11254;50.098;8.726;2022-10-16T01:01:07;4.85;;;2.65;;
22176;SDS011;11254;50.098;8.726;2022-10-16T01:03:36;5.07;;;2.40;;
22176;SDS011;11254;50.098;8.726;2022-10-16T01:06:07;4.32;;;2.42;;
22176;SDS011;11254;50.098;8.726;2022-10-16T01:08:39;5.10;;;2.35;;
22176;SDS011;11254;50.098;8.726;2022-10-16T01:11:13;5.45;;;2.67;;
22176;SDS011;11254;50.098;8.726;2022-10-16T01:13:44;5.57;;;2.60;;
22176;SDS011;11254;50.098;8.726;2022-10-16T01:16:15;5.20;;;2.40;;
22176;SDS011;11254;50.098;8.726;2022-10-16T01:18:47;5.18;;;2.30;;
22176;SDS011;11254;50.098;8.726;2022-10-16T01:21:19;5.03;;;2.47;;
22176;SDS011;11254;50.098;8.726;2022-10-16T01:23:51;5.82;;;2.30;;
22176;SDS011;11254;50.098;8.726;2022-10-16T01:26:31;5.82;;;2.22;;
22176;SDS011;11254;50.098;8.726;2022-10-16T01:29:02;5.22;;;2.10;;
22176;SDS011;11254;50.098;8.726;2022-10-16T01:31:32;4.15;;;2.08;;
22176;SDS011;11254;50.098;8.726;2022-10-16T01:34:02;5.53;;;2.10;;
22176;SDS011;11254;50.098;8.726;2022-10-16T01:36:34;4.57;;;2.20;;
22176;SDS011;11254;50.098;8.726;2022-10-16T01:39:03;3.80;;;2.03;;
22176;SDS011;11254;50.098;8.726;2022-10-16T01:41:33;3.53;;;1.52;;
22176;SDS011;11254;50.098;8.726;2022-10-16T01:44:04;3.60;;;1.67;;
22176;SDS011;11254;50.098;8.726;2022-10-16T01:46:34;6.90;;;1.80;;
22176;SDS011;11254;50.098;8.726;2022-10-16T01:49:04;5.38;;;1.77;;
22176;SDS011;11254;50.098;8.726;2022-10-16T01:51:33;4.68;;;1.55;;
22176;SDS011;11254;50.098;8.726;2022-10-16T01:54:02;4.03;;;1.60;;
22176;SDS011;11254;50.098;8.726;2022-10-16T01:56:32;4.85;;;1.67;;
22176;SDS011;11254;50.098;8.726;2022-10-16T01:59:04;5.07;;;1.63;;
22176;SDS011;11254;50.098;8.726;2022-10-16T02:01:34;3.13;;;1.55;;
22176;SDS011;11254;50.098;8.726;2022-10-16T02:04:04;7.50;;;1.83;;
22176;SDS011;11254;50.098;8.726;2022-10-16T02:06:35;2.92;;;1.50;;
22176;SDS011;11254;50.098;8.726;2022-10-16T02:09:03;3.65;;;1.60;;
22176;SDS011;11254;50.098;8.726;2022-10-16T02:11:32;3.83;;;1.65;;
22176;SDS011;11254;50.098;8.726;2022-10-16T02:14:05;5.18;;;1.80;;
22176;SDS011;11254;50.098;8.726;2022-10-16T02:16:34;3.45;;;1.48;;
22176;SDS011;11254;50.098;8.726;2022-10-16T02:19:03;3.80;;;1.30;;
22176;SDS011;11254;50.098;8.726;2022-10-16T02:21:33;2.55;;;1.25;;
22176;SDS011;11254;50.098;8.726;2022-10-16T02:24:06;3.50;;;1.40;;
22176;SDS011;11254;50.098;8.726;2022-10-16T02:26:37;2.80;;;1.20;;
22176;SDS011;11254;50.098;8.726;2022-10-16T02:29:09;3.15;;;1.20;;
22176;SDS011;11254;50.098;8.726;2022-10-16T02:31:41;4.75;;;1.15;;
22176;SDS011;11254;50.098;8.726;2022-10-16T02:34:10;5.28;;;1.10;;
22176;SDS011;11254;50.098;8.726;2022-10-16T02:36:38;5.07;;;1.13;;
22176;SDS011;11254;50.098;8.726;2022-10-16T02:39:07;4.65;;;1.30;;
22176;SDS011;11254;50.098;8.726;2022-10-16T02:41:36;2.83;;;0.98;;
22176;SDS011;11254;50.098;8.726;2022-10-16T02:44:04;4.03;;;1.10;;
22176;SDS011;11254;50.098;8.726;2022-10-16T02:46:34;2.78;;;1.00;;
22176;SDS011;11254;50.098;8.726;2022-10-16T02:49:02;4.13;;;1.00;;
22176;SDS011;11254;50.098;8.726;2022-10-16T02:51:30;2.90;;;1.08;;
22176;SDS011;11254;50.098;8.726;2022-10-16T02:53:59;3.42;;;1.10;;
22176;SDS011;11254;50.098;8.726;2022-10-16T02:56:27;2.67;;;1.05;;
22176;SDS011;11254;50.098;8.726;2022-10-16T02:58:56;3.05;;;1.00;;
22176;SDS011;11254;50.098;8.726;2022-10-16T03:01:24;4.25;;;1.27;;
22176;SDS011;11254;50.098;8.726;2022-10-16T03:03:54;4.43;;;1.20;;
22176;SDS011;11254;50.098;8.726;2022-10-16T03:06:22;2.00;;;0.80;;
22176;SDS011;11254;50.098;8.726;2022-10-16T03:08:51;3.38;;;1.20;;
22176;SDS011;11254;50.098;8.726;2022-10-16T03:11:19;4.22;;;1.08;;
22176;SDS011;11254;50.098;8.726;2022-10-16T03:13:47;1.95;;;0.70;;
22176;SDS011;11254;50.098;8.726;2022-10-16T03:16:16;2.17;;;0.93;;
22176;SDS011;11254;50.098;8.726;2022-10-16T03:18:47;2.55;;;0.98;;
22176;SDS011;11254;50.098;8.726;2022-10-16T03:21:17;2.45;;;0.82;;
22176;SDS011;11254;50.098;8.726;2022-10-16T03:23:45;3.38;;;1.10;;
22176;SDS011;11254;50.098;8.726;2022-10-16T03:26:13;2.65;;;1.00;;
22176;SDS011;11254;50.098;8.726;2022-10-16T03:28:42;2.78;;;1.00;;
22176;SDS011;11254;50.098;8.726;2022-10-16T03:31:10;4.35;;;1.00;;
22176;SDS011;11254;50.098;8.726;2022-10-16T03:33:39;2.88;;;1.00;;
22176;SDS011;11254;50.098;8.726;2022-10-16T03:36:07;2.38;;;1.00;;
22176;SDS011;11254;50.098;8.726;2022-10-16T03:38:37;2.30;;;0.98;;
22176;SDS011;11254;50.098;8.726;2022-10-16T03:41:05;3.60;;;0.82;;
22176;SDS011;11254;50.098;8.726;2022-10-16T03:43:34;2.50;;;0.98;;
22176;SDS011;11254;50.098;8.726;2022-10-16T03:46:03;5.95;;;1.00;;
22176;SDS011;11254;50.098;8.726;2022-10-16T03:48:31;1.88;;;0.85;;
22176;SDS011;11254;50.098;8.726;2022-10-16T03:50:59;2.83;;;0.95;;
22176;SDS011;11254;50.098;8.726;2022-10-16T03:53:28;2.97;;;1.08;;
22176;SDS011;11254;50.098;8.726;2022-10-16T03:55:57;4.13;;;1.20;;
22176;SDS011;11254;50.098;8.726;2022-10-16T03:58:26;2.83;;;1.10;;
22176;SDS011;11254;50.098;8.726;2022-10-16T04:00:54;4.35;;;1.00;;
22176;SDS011;11254;50.098;8.726;2022-10-16T04:03:23;2.25;;;1.00;;
22176;SDS011;11254;50.098;8.726;2022-10-16T04:05:51;3.47;;;1.70;;
22176;SDS011;11254;50.098;8.726;2022-10-16T04:08:20;4.43;;;0.93;;
22176;SDS011;11254;50.098;8.726;2022-10-16T04:10:48;3.13;;;1.02;;
22176;SDS011;11254;50.098;8.726;2022-10-16T04:13:18;8.77;;;1.15;;
22176;SDS011;11254;50.098;8.726;2022-10-16T04:15:46;2.63;;;1.05;;
22176;SDS011;11254;50.098;8.726;2022-10-16T04:18:15;4.22;;;1.25;;
22176;SDS011;11254;50.098;8.726;2022-10-16T04:20:43;3.08;;;1.40;;
22176;SDS011;11254;50.098;8.726;2022-10-16T04:23:11;2.80;;;1.10;;
22176;SDS011;11254;50.098;8.726;2022-10-16T04:25:40;2.38;;;1.20;;
22176;SDS011;11254;50.098;8.726;2022-10-16T04:28:08;4.18;;;1.27;;
22176;SDS011;11254;50.098;8.726;2022-10-16T04:30:38;3.97;;;1.67;;
22176;SDS011;11254;50.098;8.726;2022-10-16T04:33:07;3.30;;;1.50;;
22176;SDS011;11254;50.098;8.726;2022-10-16T04:35:36;4.50;;;1.35;;
22176;SDS011;11254;50.098;8.726;2022-10-16T04:38:04;5.47;;;1.20;;
22176;SDS011;11254;50.098;8.726;2022-10-16T04:40:32;4.20;;;1.48;;
22176;SDS011;11254;50.098;8.726;2022-10-16T04:43:02;3.20;;;1.38;;
22176;SDS011;11254;50.098;8.726;2022-10-16T04:45:31;3.53;;;1.20;;
22176;SDS011;11254;50.098;8.726;2022-10-16T04:48:00;2.60;;;1.17;;
22176;SDS011;11254;50.098;8.726;2022-10-16T04:50:29;2.45;;;1.00;;
22176;SDS011;11254;50.098;8.726;2022-10-16T04:53:04;3.97;;;1.15;;
22176;SDS011;11254;50.098;8.726;2022-10-16T04:55:32;2.55;;;1.10;;
22176;SDS011;11254;50.098;8.726;2022-10-16T04:58:01;3.17;;;1.27;;
22176;SDS011;11254;50.098;8.726;2022-10-16T05:00:29;3.53;;;1.23;;
22176;SDS011;11254;50.098;8.726;2022-10-16T05:02:58;4.95;;;1.50;;
22176;SDS011;11254;50.098;8.726;2022-10-16T05:05:28;3.08;;;1.30;;
22176;SDS011;11254;50.098;8.726;2022-10-16T05:07:56;3.28;;;1.17;;
22176;SDS011;11254;50.098;8.726;2022-10-16T05:10:25;3.53;;;1.27;;
22176;SDS011;11254;50.098;8.726;2022-10-16T05:12:53;5.05;;;1.20;;
22176;SDS011;11254;50.098;8.726;2022-10-16T05:15:22;5.65;;;1.58;;
22176;SDS011;11254;50.098;8.726;2022-10-16T05:17:52;4.20;;;1.40;;
22176;SDS011;11254;50.098;8.726;2022-10-16T05:20:23;4.22;;;1.20;;
22176;SDS011;11254;50.098;8.726;2022-10-16T05:22:52;3.35;;;1.27;;
22176;SDS011;11254;50.098;8.726;2022-10-16T05:25:21;5.60;;;1.38;;
22176;SDS011;11254;50.098;8.726;2022-10-16T05:27:49;3.55;;;1.33;;
22176;SDS011;11254;50.098;8.726;2022-10-16T05:30:18;4.03;;;1.63;;
22176;SDS011;11254;50.098;8.726;2022-10-16T05:32:46;4.80;;;1.30;;
22176;SDS011;11254;50.098;8.726;2022-10-16T05:35:15;3.95;;;1.40;;
22176;SDS011;11254;50.098;8.726;2022-10-16T05:37:44;4.43;;;1.50;;
22176;SDS011;11254;50.098;8.726;2022-10-16T05:40:14;3.97;;;1.33;;
22176;SDS011;11254;50.098;8.726;2022-10-16T05:42:43;6.30;;;1.60;;
22176;SDS011;11254;50.098;8.726;2022-10-16T05:45:11;4.78;;;1.23;;
22176;SDS011;11254;50.098;8.726;2022-10-16T05:47:40;2.83;;;1.30;;
22176;SDS011;11254;50.098;8.726;2022-10-16T05:50:08;6.40;;;1.80;;
22176;SDS011;11254;50.098;8.726;2022-10-16T05:52:37;4.50;;;1.30;;
22176;SDS011;11254;50.098;8.726;2022-10-16T05:55:05;2.70;;;1.20;;
22176;SDS011;11254;50.098;8.726;2022-10-16T05:57:35;4.95;;;1.33;;
22176;SDS011;11254;50.098;8.726;2022-10-16T06:00:04;5.45;;;1.40;;
22176;SDS011;11254;50.098;8.726;2022-10-16T06:02:37;3.33;;;1.50;;
22176;SDS011;11254;50.098;8.726;2022-10-16T06:05:06;3.53;;;1.40;;
22176;SDS011;11254;50.098;8.726;2022-10-16T06:07:34;5.55;;;1.38;;
22176;SDS011;11254;50.098;8.726;2022-10-16T06:10:03;4.50;;;1.40;;
22176;SDS011;11254;50.098;8.726;2022-10-16T06:12:32;3.30;;;1.30;;
22176;SDS011;11254;50.098;8.726;2022-10-16T06:15:01;3.25;;;1.50;;
22176;SDS011;11254;50.098;8.726;2022-10-16T06:17:30;4.68;;;1.25;;
22176;SDS011;11254;50.098;8.726;2022-10-16T06:19:58;5.32;;;1.60;;
22176;SDS011;11254;50.098;8.726;2022-10-16T06:22:27;3.03;;;1.30;;
22176;SDS011;11254;50.098;8.726;2022-10-16T06:24:55;3.25;;;1.55;;
22176;SDS011;11254;50.098;8.726;2022-10-16T06:27:23;3.88;;;1.70;;
22176;SDS011;11254;50.098;8.726;2022-10-16T06:29:52;5.20;;;1.65;;
22176;SDS011;11254;50.098;8.726;2022-10-16T06:32:22;7.18;;;2.90;;
22176;SDS011;11254;50.098;8.726;2022-10-16T06:34:50;5.50;;;3.20;;
22176;SDS011;11254;50.098;8.726;2022-10-16T06:37:18;8.02;;;3.85;;
22176;SDS011;11254;50.098;8.726;2022-10-16T06:39:48;6.45;;;3.58;;
22176;SDS011;11254;50.098;8.726;2022-10-16T06:42:18;6.38;;;3.70;;
22176;SDS011;11254;50.098;8.726;2022-10-16T06:44:47;8.65;;;3.90;;
22176;SDS011;11254;50.098;8.726;2022-10-16T06:47:15;12.13;;;4.78;;
22176;SDS011;11254;50.098;8.726;2022-10-16T06:49:44;6.70;;;3.78;;
22176;SDS011;11254;50.098;8.726;2022-10-16T06:52:19;8.20;;;3.97;;
22176;SDS011;11254;50.098;8.726;2022-10-16T06:54:49;9.70;;;4.47;;
22176;SDS011;11254;50.098;8.726;2022-10-16T06:57:17;9.70;;;4.43;;
22176;SDS011;11254;50.098;8.726;2022-10-16T06:59:45;7.20;;;4.15;;
22176;SDS011;11254;50.098;8.726;2022-10-16T07:02:18;7.13;;;3.88;;
22176;SDS011;11254;50.098;8.726;2022-10-16T07:04:48;10.60;;;4.15;;
22176;SDS011;11254;50.098;8.726;2022-10-16T07:07:16;7.47;;;3.70;;
22176;SDS011;11254;50.098;8.726;2022-10-16T07:09:45;8.75;;;3.92;;
22176;SDS011;11254;50.098;8.726;2022-10-16T07:12:13;7.05;;;4.03;;
22176;SDS011;11254;50.098;8.726;2022-10-16T07:14:41;5.18;;;2.97;;
22176;SDS011;11254;50.098;8.726;2022-10-16T07:17:10;6.80;;;3.45;;
22176;SDS011;11254;50.098;8.726;2022-10-16T07:19:39;7.57;;;3.60;;
22176;SDS011;11254;50.098;8.726;2022-10-16T07:22:08;7.72;;;3.75;;
22176;SDS011;11254;50.098;8.726;2022-10-16T07:24:37;7.90;;;4.05;;
22176;SDS011;11254;50.098;8.726;2022-10-16T07:27:05;7.43;;;3.78;;
22176;SDS011;11254;50.098;8.726;2022-10-16T07:29:33;5.97;;;3.33;;
22176;SDS011;11254;50.098;8.726;2022-10-16T07:32:02;7.63;;;3.45;;
22176;SDS011;11254;50.098;8.726;2022-10-16T07:34:30;7.00;;;3.10;;
22176;SDS011;11254;50.098;8.726;2022-10-16T07:36:58;6.50;;;3.50;;
22176;SDS011;11254;50.098;8.726;2022-10-16T07:39:28;5.50;;;2.67;;
22176;SDS011;11254;50.098;8.726;2022-10-16T07:41:57;7.38;;;2.97;;
22176;SDS011;11254;50.098;8.726;2022-10-16T07:44:26;8.05;;;3.30;;
22176;SDS011;11254;50.098;8.726;2022-10-16T07:46:54;6.53;;;2.63;;
22176;SDS011;11254;50.098;8.726;2022-10-16T07:49:23;7.15;;;3.30;;
22176;SDS011;11254;50.098;8.726;2022-10-16T07:51:52;9.05;;;3.13;;
22176;SDS011;11254;50.098;8.726;2022-10-16T07:54:20;8.30;;;3.00;;
22176;SDS011;11254;50.098;8.726;2022-10-16T07:56:50;6.60;;;2.85;;
22176;SDS011;11254;50.098;8.726;2022-10-16T07:59:18;7.78;;;3.17;;
22176;SDS011;11254;50.098;8.726;2022-10-16T08:01:47;7.60;;;2.90;;
22176;SDS011;11254;50.098;8.726;2022-10-16T08:04:17;6.75;;;3.00;;
22176;SDS011;11254;50.098;8.726;2022-10-16T08:06:45;5.82;;;3.13;;
22176;SDS011;11254;50.098;8.726;2022-10-16T08:09:13;6.88;;;3.33;;
22176;SDS011;11254;50.098;8.726;2022-10-16T08:11:42;7.65;;;3.65;;
22176;SDS011;11254;50.098;8.726;2022-10-16T08:14:12;6.18;;;3.30;;
22176;SDS011;11254;50.098;8.726;2022-10-16T08:16:40;7.90;;;3.53;;
22176;SDS011;11254;50.098;8.726;2022-10-16T08:19:09;5.90;;;2.90;;
22176;SDS011;11254;50.098;8.726;2022-10-16T08:21:37;7.28;;;3.15;;
22176;SDS011;11254;50.098;8.726;2022-10-16T08:24:05;6.85;;;3.35;;
22176;SDS011;11254;50.098;8.726;2022-10-16T08:26:34;6.72;;;3.70;;
22176;SDS011;11254;50.098;8.726;2022-10-16T08:29:03;7.30;;;3.28;;
22176;SDS011;11254;50.098;8.726;2022-10-16T08:31:33;5.75;;;3.22;;
22176;SDS011;11254;50.098;8.726;2022-10-16T08:34:01;6.40;;;3.60;;
22176;SDS011;11254;50.098;8.726;2022-10-16T08:36:30;6.03;;;3.83;;
22176;SDS011;11254;50.098;8.726;2022-10-16T08:38:58;10.68;;;4.68;;
22176;SDS011;11254;50.098;8.726;2022-10-16T08:41:33;9.80;;;4.70;;
22176;SDS011;11254;50.098;8.726;2022-10-16T08:44:21;8.55;;;4.80;;
22176;SDS011;11254;50.098;8.726;2022-10-16T08:46:54;9.00;;;5.13;;
22176;SDS011;11254;50.098;8.726;2022-10-16T08:49:24;9.80;;;5.93;;
22176;SDS011;11254;50.098;8.726;2022-10-16T08:51:52;11.48;;;6.72;;
22176;SDS011;11254;50.098;8.726;2022-10-16T08:54:23;10.10;;;6.35;;
22176;SDS011;11254;50.098;8.726;2022-10-16T08:56:54;9.30;;;6.07;;
22176;SDS011;11254;50.098;8.726;2022-10-16T08:59:22;11.10;;;6.53;;
22176;SDS011;11254;50.098;8.726;2022-10-16T09:01:51;10.70;;;6.30;;
22176;SDS011;11254;50.098;8.726;2022-10-16T09:07:11;12.05;;;6.40;;
22176;SDS011;11254;50.098;8.726;2022-10-16T09:09:49;13.45;;;7.57;;
22176;SDS011;11254;50.098;8.726;2022-10-16T09:12:20;12.00;;;8.45;;
22176;SDS011;11254;50.098;8.726;2022-10-16T09:14:52;14.23;;;7.93;;
22176;SDS011;11254;50.098;8.726;2022-10-16T09:17:26;13.57;;;8.30;;
22176;SDS011;11254;50.098;8.726;2022-10-16T09:19:59;16.35;;;8.32;;
22176;SDS011;11254;50.098;8.726;2022-10-16T09:22:33;13.77;;;8.40;;
22176;SDS011;11254;50.098;8.726;2022-10-16T09:25:04;14.10;;;8.15;;
22176;SDS011;11254;50.098;8.726;2022-10-16T09:27:38;16.20;;;8.65;;
22176;SDS011;11254;50.098;8.726;2022-10-16T09:30:10;15.18;;;9.40;;
22176;SDS011;11254;50.098;8.726;2022-10-16T09:32:39;16.70;;;9.85;;
22176;SDS011;11254;50.098;8.726;2022-10-16T09:35:11;27.58;;;15.75;;
22176;SDS011;11254;50.098;8.726;2022-10-16T09:37:44;27.08;;;15.00;;
22176;SDS011;11254;50.098;8.726;2022-10-16T09:40:13;23.52;;;12.95;;
22176;SDS011;11254;50.098;8.726;2022-10-16T09:42:52;21.48;;;11.13;;
22176;SDS011;11254;50.098;8.726;2022-10-16T09:45:22;21.85;;;10.85;;
22176;SDS011;11254;50.098;8.726;2022-10-16T09:47:51;19.52;;;11.63;;
22176;SDS011;11254;50.098;8.726;2022-10-16T09:50:24;16.95;;;11.13;;
22176;SDS011;11254;50.098;8.726;2022-10-16T09:53:04;18.73;;;11.07;;
22176;SDS011;11254;50.098;8.726;2022-10-16T09:55:32;18.45;;;10.35;;
22176;SDS011;11254;50.098;8.726;2022-10-16T09:58:01;16.35;;;9.45;;
22176;SDS011;11254;50.098;8.726;2022-10-16T10:00:29;16.55;;;9.95;;
22176;SDS011;11254;50.098;8.726;2022-10-16T10:02:58;15.90;;;9.23;;
22176;SDS011;11254;50.098;8.726;2022-10-16T10:05:27;15.10;;;9.20;;
22176;SDS011;11254;50.098;8.726;2022-10-16T10:07:56;13.55;;;8.90;;
22176;SDS011;11254;50.098;8.726;2022-10-16T10:10:28;13.77;;;9.30;;
22176;SDS011;11254;50.098;8.726;2022-10-16T10:12:56;12.07;;;8.80;;
22176;SDS011;11254;50.098;8.726;2022-10-16T10:15:25;13.27;;;9.13;;
22176;SDS011;11254;50.098;8.726;2022-10-16T10:17:56;12.40;;;8.43;;
22176;SDS011;11254;50.098;8.726;2022-10-16T10:20:28;13.15;;;8.90;;
22176;SDS011;11254;50.098;8.726;2022-10-16T10:22:57;14.32;;;8.80;;
22176;SDS011;11254;50.098;8.726;2022-10-16T10:25:29;14.07;;;8.82;;
22176;SDS011;11254;50.098;8.726;2022-10-16T10:28:01;11.82;;;7.90;;
22176;SDS011;11254;50.098;8.726;2022-10-16T10:30:35;11.43;;;7.53;;
22176;SDS011;11254;50.098;8.726;2022-10-16T10:33:09;12.32;;;7.50;;
22176;SDS011;11254;50.098;8.726;2022-10-16T10:35:41;11.90;;;7.45;;
22176;SDS011;11254;50.098;8.726;2022-10-16T10:38:16;13.43;;;8.10;;
22176;SDS011;11254;50.098;8.726;2022-10-16T10:40:49;12.00;;;8.27;;
22176;SDS011;11254;50.098;8.726;2022-10-16T10:43:22;10.10;;;7.10;;
22176;SDS011;11254;50.098;8.726;2022-10-16T10:45:54;11.60;;;7.50;;
22176;SDS011;11254;50.098;8.726;2022-10-16T10:48:29;12.32;;;7.30;;
22176;SDS011;11254;50.098;8.726;2022-10-16T10:51:08;13.55;;;7.00;;
22176;SDS011;11254;50.098;8.726;2022-10-16T10:53:40;9.00;;;6.55;;
22176;SDS011;11254;50.098;8.726;2022-10-16T10:56:21;8.93;;;5.60;;
22176;SDS011;11254;50.098;8.726;2022-10-16T10:59:01;10.90;;;6.22;;
22176;SDS011;11254;50.098;8.726;2022-10-16T11:01:34;9.30;;;5.75;;
22176;SDS011;11254;50.098;8.726;2022-10-16T11:04:14;9.07;;;6.30;;
22176;SDS011;11254;50.098;8.726;2022-10-16T11:06:47;10.65;;;6.93;;
22176;SDS011;11254;50.098;8.726;2022-10-16T11:09:17;10.52;;;6.68;;
22176;SDS011;11254;50.098;8.726;2022-10-16T11:11:48;10.73;;;7.18;;
22176;SDS011;11254;50.098;8.726;2022-10-16T11:14:18;8.10;;;6.22;;
22176;SDS011;11254;50.098;8.726;2022-10-16T11:16:49;9.90;;;6.25;;
22176;SDS011;11254;50.098;8.726;2022-10-16T11:19:22;10.00;;;6.30;;
22176;SDS011;11254;50.098;8.726;2022-10-16T11:21:54;9.85;;;6.03;;
22176;SDS011;11254;50.098;8.726;2022-10-16T11:24:29;6.97;;;5.20;;
22176;SDS011;11254;50.098;8.726;2022-10-16T11:27:04;8.35;;;4.60;;
22176;SDS011;11254;50.098;8.726;2022-10-16T11:29:36;7.82;;;5.30;;
22176;SDS011;11254;50.098;8.726;2022-10-16T11:32:12;7.53;;;5.03;;
22176;SDS011;11254;50.098;8.726;2022-10-16T11:34:47;8.02;;;4.72;;
22176;SDS011;11254;50.098;8.726;2022-10-16T11:37:18;7.18;;;4.25;;
22176;SDS011;11254;50.098;8.726;2022-10-16T11:39:48;8.30;;;5.10;;
22176;SDS011;11254;50.098;8.726;2022-10-16T11:42:20;6.63;;;4.63;;
22176;SDS011;11254;50.098;8.726;2022-10-16T11:44:51;7.88;;;4.75;;
22176;SDS011;11254;50.098;8.726;2022-10-16T11:47:25;7.50;;;4.45;;
22176;SDS011;11254;50.098;8.726;2022-10-16T11:50:17;4.97;;;3.90;;
22176;SDS011;11254;50.098;8.726;2022-10-16T11:52:49;5.90;;;3.88;;
22176;SDS011;11254;50.098;8.726;2022-10-16T11:55:20;6.85;;;3.92;;
22176;SDS011;11254;50.098;8.726;2022-10-16T11:57:52;6.10;;;4.10;;
22176;SDS011;11254;50.098;8.726;2022-10-16T12:00:22;6.07;;;3.85;;
22176;SDS011;11254;50.098;8.726;2022-10-16T12:02:54;5.72;;;3.70;;
22176;SDS011;11254;50.098;8.726;2022-10-16T12:05:25;8.45;;;4.15;;
22176;SDS011;11254;50.098;8.726;2022-10-16T12:08:02;6.30;;;3.67;;
22176;SDS011;11254;50.098;8.726;2022-10-16T12:10:33;10.60;;;4.38;;
22176;SDS011;11254;50.098;8.726;2022-10-16T12:16:03;5.63;;;3.50;;
22176;SDS011;11254;50.098;8.726;2022-10-16T12:18:31;5.25;;;3.28;;
22176;SDS011;11254;50.098;8.726;2022-10-16T12:21:00;6.47;;;3.30;;
22176;SDS011;11254;50.098;8.726;2022-10-16T12:23:32;6.38;;;3.60;;
22176;SDS011;11254;50.098;8.726;2022-10-16T12:26:01;4.30;;;2.95;;
22176;SDS011;11254;50.098;8.726;2022-10-16T12:28:30;6.63;;;2.85;;
22176;SDS011;11254;50.098;8.726;2022-10-16T12:31:01;4.68;;;2.50;;
22176;SDS011;11254;50.098;8.726;2022-10-16T12:33:31;5.30;;;2.70;;
22176;SDS011;11254;50.098;8.726;2022-10-16T12:36:00;5.10;;;3.00;;
22176;SDS011;11254;50.098;8.726;2022-10-16T12:38:30;5.32;;;3.00;;
22176;SDS011;11254;50.098;8.726;2022-10-16T12:41:00;5.32;;;2.80;;
22176;SDS011;11254;50.098;8.726;2022-10-16T12:43:36;4.38;;;2.33;;
22176;SDS011;11254;50.098;8.726;2022-10-16T12:46:20;3.50;;;1.90;;
22176;SDS011;11254;50.098;8.726;2022-10-16T12:48:49;4.18;;;2.10;;
22176;SDS011;11254;50.098;8.726;2022-10-16T12:51:34;4.43;;;2.22;;
22176;SDS011;11254;50.098;8.726;2022-10-16T12:54:03;3.35;;;2.00;;
22176;SDS011;11254;50.098;8.726;2022-10-16T12:56:36;5.35;;;2.13;;
22176;SDS011;11254;50.098;8.726;2022-10-16T12:59:10;4.15;;;2.22;;
22176;SDS011;11254;50.098;8.726;2022-10-16T13:01:47;6.00;;;2.40;;
22176;SDS011;11254;50.098;8.726;2022-10-16T13:04:31;5.32;;;2.60;;
22176;SDS011;11254;50.098;8.726;2022-10-16T13:07:06;6.13;;;3.50;;
22176;SDS011;11254;50.098;8.726;2022-10-16T13:09:42;6.45;;;2.75;;
22176;SDS011;11254;50.098;8.726;2022-10-16T13:12:17;5.85;;;2.60;;
22176;SDS011;11254;50.098;8.726;2022-10-16T13:14:53;4.10;;;2.20;;
22176;SDS011;11254;50.098;8.726;2022-10-16T13:17:27;4.10;;;1.90;;
22176;SDS011;11254;50.098;8.726;2022-10-16T13:20:00;3.75;;;1.95;;
22176;SDS011;11254;50.098;8.726;2022-10-16T13:22:32;4.15;;;2.10;;
22176;SDS011;11254;50.098;8.726;2022-10-16T13:25:05;5.30;;;2.17;;
22176;SDS011;11254;50.098;8.726;2022-10-16T13:27:40;3.70;;;1.95;;
22176;SDS011;11254;50.098;8.726;2022-10-16T13:30:12;4.82;;;1.98;;
22176;SDS011;11254;50.098;8.726;2022-10-16T13:32:45;4.57;;;2.58;;
22176;SDS011;11254;50.098;8.726;2022-10-16T13:35:18;4.22;;;1.98;;
22176;SDS011;11254;50.098;8.726;2022-10-16T13:37:46;3.60;;;1.90;;
22176;SDS011;11254;50.098;8.726;2022-10-16T13:40:19;3.58;;;2.10;;
22176;SDS011;11254;50.098;8.726;2022-10-16T13:42:48;4.15;;;2.33;;
22176;SDS011;11254;50.098;8.726;2022-10-16T13:45:17;4.18;;;2.08;;
22176;SDS011;11254;50.098;8.726;2022-10-16T13:47:47;3.70;;;1.77;;
22176;SDS011;11254;50.098;8.726;2022-10-16T13:50:16;5.65;;;1.90;;
22176;SDS011;11254;50.098;8.726;2022-10-16T13:52:45;5.05;;;2.30;;
22176;SDS011;11254;50.098;8.726;2022-10-16T13:55:14;5.50;;;1.90;;
22176;SDS011;11254;50.098;8.726;2022-10-16T13:57:43;3.75;;;1.65;;
22176;SDS011;11254;50.098;8.726;2022-10-16T14:00:17;3.58;;;1.55;;
22176;SDS011;11254;50.098;8.726;2022-10-16T14:02:49;3.60;;;1.75;;
22176;SDS011;11254;50.098;8.726;2022-10-16T14:05:20;3.72;;;1.77;;
22176;SDS011;11254;50.098;8.726;2022-10-16T14:07:49;3.65;;;1.60;;
22176;SDS011;11254;50.098;8.726;2022-10-16T14:10:19;3.72;;;1.65;;
22176;SDS011;11254;50.098;8.726;2022-10-16T14:12:53;4.55;;;1.88;;
22176;SDS011;11254;50.098;8.726;2022-10-16T14:15:22;3.30;;;1.83;;
22176;SDS011;11254;50.098;8.726;2022-10-16T14:17:51;3.00;;;1.70;;
22176;SDS011;11254;50.098;8.726;2022-10-16T14:20:22;5.30;;;2.53;;
22176;SDS011;11254;50.098;8.726;2022-10-16T14:22:58;5.40;;;2.38;;
22176;SDS011;11254;50.098;8.726;2022-10-16T14:25:27;4.72;;;2.15;;
22176;SDS011;11254;50.098;8.726;2022-10-16T14:27:56;4.45;;;2.22;;
22176;SDS011;11254;50.098;8.726;2022-10-16T14:30:25;4.55;;;1.98;;
22176;SDS011;11254;50.098;8.726;2022-10-16T14:32:54;6.75;;;2.38;;
22176;SDS011;11254;50.098;8.726;2022-10-16T14:35:26;4.50;;;2.40;;
22176;SDS011;11254;50.098;8.726;2022-10-16T14:37:54;4.90;;;2.17;;
22176;SDS011;11254;50.098;8.726;2022-10-16T14:40:24;5.53;;;2.53;;
22176;SDS011;11254;50.098;8.726;2022-10-16T14:42:53;4.65;;;2.17;;
22176;SDS011;11254;50.098;8.726;2022-10-16T14:45:23;3.97;;;2.03;;
22176;SDS011;11254;50.098;8.726;2022-10-16T14:47:52;3.47;;;2.05;;
22176;SDS011;11254;50.098;8.726;2022-10-16T14:50:22;6.65;;;2.50;;
22176;SDS011;11254;50.098;8.726;2022-10-16T14:52:52;4.13;;;2.00;;
22176;SDS011;11254;50.098;8.726;2022-10-16T14:55:21;4.10;;;2.00;;
22176;SDS011;11254;50.098;8.726;2022-10-16T14:57:54;4.93;;;1.88;;
22176;SDS011;11254;50.098;8.726;2022-10-16T15:00:26;4.85;;;2.10;;
22176;SDS011;11254;50.098;8.726;2022-10-16T15:02:54;4.63;;;1.90;;
22176;SDS011;11254;50.098;8.726;2022-10-16T15:05:24;3.72;;;1.92;;
22176;SDS011;11254;50.098;8.726;2022-10-16T15:07:54;4.53;;;1.80;;
22176;SDS011;11254;50.098;8.726;2022-10-16T15:10:23;5.05;;;2.63;;